Friday, November 24, 2017, 12:22 AM GMT
Back to Local

CYQB, Quebec, Que

Location: , , Canada Lat: 46.8
Local Time: 12:22 AM GMT ( 0:22 GMT) Lon: -71.383
Time Zone: GMT Elev: 229 ft

Show me the last for .
Show Coded

Time T Td Feel RH Dir Speed Gust Alt SLP Vis Weather Sky Remarks
2017-11-24 00:00 25 18 15 73 240° 9 - 29.87 29.89 4 -SHSN BKN020 OVC040 None
2017-11-23 23:08 25 16 14 68 230° 12 - 29.88 29.90 10 -SHSN OVC025 None
2017-11-23 23:00 25 16 15 68 230° 10 - 29.88 29.90 15 OVC025 None
2017-11-23 22:00 25 16 13 68 230° 13 - 29.89 29.91 15 BKN024 OVC120 None
2017-11-23 21:00 25 14 13 62 240° 14 - 29.91 29.93 30 SCT035 BKN120 None
2017-11-23 20:00 25 12 9 58 250° 18 24 29.91 29.93 30 FEW028 SCT140 BKN240 None
2017-11-23 19:00 27 14 14 58 250° 16 - 29.92 29.94 30 SCT028 BKN130 BKN260 None
2017-11-23 18:00 25 12 12 58 240° 15 - 29.94 29.96 30 SCT028 BKN150 None
2017-11-23 17:00 25 12 12 58 240° 16 - 29.95 29.97 30 SCT030 BKN140 None
2017-11-23 16:00 23 12 9 62 260° 17 - 29.99 30.01 30 SCT030 BKN260 None
2017-11-23 15:00 23 10 8 57 250° 20 - 30.02 30.03 30 SCT028 BKN260 None
2017-11-23 14:00 21 12 7 67 260° 16 - 30.02 30.04 30 SCT035 BKN220 None
2017-11-23 13:00 19 12 5 73 250° 15 - 30.02 30.03 30 BKN034 None
2017-11-23 12:00 19 12 7 73 250° 12 - 30.00 30.02 30 BKN032 None
2017-11-23 11:00 18 10 5 72 250° 12 - 29.99 30.01 15 SCT034 None
2017-11-23 10:00 19 12 7 73 250° 13 - 30.00 30.01 15 BKN032 None
2017-11-23 09:00 18 12 5 78 250° 12 - 29.98 30.00 15 SCT028 None
2017-11-23 08:00 19 12 9 73 270° 9 - 29.97 29.99 15 FEW028 None
2017-11-23 07:00 21 10 8 62 270° 14 - 29.97 29.98 15 FEW028 None
2017-11-23 06:00 21 12 9 67 280° 12 - 29.96 29.98 15 CLR None
2017-11-23 05:00 23 12 11 62 300° 13 - 29.95 29.97 15 CLR None
2017-11-23 04:00 23 14 9 67 310° 12 18 29.94 29.96 15 CLR None
2017-11-23 03:00 25 16 10 68 310° 9 21 29.94 29.96 15 FEW058 None
2017-11-23 02:00 27 18 19 68 300° 7 - 29.94 29.96 15 FEW033 BKN058 None
2017-11-23 01:00 30 21 18 68 330° 10 18 29.93 29.95 15 OVC056 None

Support USWX by starting your Amazon purchase here.